createdAt,value
2019-02-26T00:01:30.831Z,10.23
2019-02-26T00:04:00.786Z,10.80
2019-02-26T00:06:30.609Z,9.57
2019-02-26T00:09:01.937Z,9.27
2019-02-26T00:11:33.445Z,9.07
2019-02-26T00:14:03.318Z,9.40
2019-02-26T00:16:37.643Z,9.73
2019-02-26T00:19:05.546Z,9.10
2019-02-26T00:21:36.162Z,8.47
2019-02-26T00:24:07.321Z,9.00
2019-02-26T00:26:38.566Z,8.40
2019-02-26T00:29:08.844Z,8.60
2019-02-26T00:31:38.761Z,7.80
2019-02-26T00:34:10.768Z,8.90
2019-02-26T00:36:40.069Z,8.87
2019-02-26T00:39:10.207Z,8.70
2019-02-26T00:41:40.443Z,8.83
2019-02-26T00:44:10.196Z,8.50
2019-02-26T00:46:39.852Z,8.70
2019-02-26T00:49:09.657Z,8.90
2019-02-26T00:51:41.723Z,8.47
2019-02-26T00:54:10.913Z,9.47
2019-02-26T00:56:41.085Z,8.33
2019-02-26T00:59:10.838Z,8.03
2019-02-26T01:01:44.074Z,8.50
2019-02-26T01:04:12.230Z,8.30
2019-02-26T01:06:41.970Z,9.07
2019-02-26T01:09:13.418Z,8.57
2019-02-26T01:11:45.071Z,8.83
2019-02-26T01:14:15.787Z,8.60
2019-02-26T01:16:48.184Z,8.20
2019-02-26T01:19:19.726Z,8.77
2019-02-26T01:21:49.238Z,8.17
2019-02-26T01:24:18.896Z,8.27
2019-02-26T01:26:48.643Z,8.30
2019-02-26T01:29:20.651Z,8.30
2019-02-26T01:31:49.832Z,8.53
2019-02-26T01:34:20.381Z,8.30
2019-02-26T01:36:50.290Z,7.97
2019-02-26T01:39:21.547Z,8.20
2019-02-26T01:41:53.999Z,8.57
2019-02-26T01:44:23.039Z,8.20
2019-02-26T01:46:53.343Z,8.63
2019-02-26T01:49:26.647Z,8.33
2019-02-26T01:51:55.991Z,8.73
2019-02-26T01:54:25.757Z,8.30
2019-02-26T01:56:55.473Z,8.40
2019-02-26T01:59:25.344Z,8.17
2019-02-26T02:01:56.088Z,8.77
2019-02-26T02:04:25.864Z,8.33
2019-02-26T02:06:57.107Z,8.53
2019-02-26T02:09:27.285Z,8.37
2019-02-26T02:11:58.258Z,8.07
2019-02-26T02:14:28.843Z,8.20
2019-02-26T02:16:58.652Z,8.30
2019-02-26T02:19:30.187Z,8.40
2019-02-26T02:21:59.787Z,8.70
2019-02-26T02:24:29.672Z,8.53
2019-02-26T02:27:00.307Z,8.87
2019-02-26T02:29:30.178Z,8.40
2019-02-26T02:32:02.829Z,8.47
2019-02-26T02:34:32.984Z,8.33
2019-02-26T02:37:03.003Z,7.43
2019-02-26T02:39:32.849Z,8.07
2019-02-26T02:42:02.603Z,7.87
2019-02-26T02:44:32.271Z,7.53
2019-02-26T02:47:03.887Z,7.77
2019-02-26T02:49:36.467Z,7.90
2019-02-26T02:52:07.217Z,7.73
2019-02-26T02:54:38.436Z,7.60
2019-02-26T02:57:09.997Z,7.30
2019-02-26T02:59:42.299Z,7.70
2019-02-26T03:02:12.669Z,7.53
2019-02-26T03:04:42.725Z,7.53
2019-02-26T03:07:12.616Z,8.33
2019-02-26T03:09:43.224Z,7.70
2019-02-26T03:12:13.729Z,7.20
2019-02-26T03:14:44.541Z,7.37
2019-02-26T03:17:17.403Z,7.53
2019-02-26T03:19:45.811Z,7.90
2019-02-26T03:22:18.058Z,7.27
2019-02-26T03:24:48.362Z,7.33
2019-02-26T03:27:18.417Z,7.60
2019-02-26T03:29:49.949Z,7.37
2019-02-26T03:32:19.486Z,7.73
2019-02-26T03:34:49.198Z,7.17
2019-02-26T03:37:18.959Z,8.40
2019-02-26T03:39:48.637Z,7.47
2019-02-26T03:42:20.742Z,7.50
2019-02-26T03:44:49.897Z,7.63
2019-02-26T03:47:19.609Z,7.47
2019-02-26T03:49:49.352Z,8.57
2019-02-26T03:52:19.285Z,7.57
2019-02-26T03:54:50.677Z,7.90
2019-02-26T03:57:22.688Z,8.27
2019-02-26T03:59:52.153Z,8.03
2019-02-26T04:02:23.493Z,7.43
2019-02-26T04:04:54.386Z,8.10
2019-02-26T04:07:26.047Z,8.20
2019-02-26T04:09:58.583Z,7.50
2019-02-26T04:12:28.104Z,8.10
2019-02-26T04:14:58.024Z,7.50
2019-02-26T04:17:28.674Z,7.27
2019-02-26T04:19:59.307Z,8.10
2019-02-26T04:22:31.893Z,7.77
2019-02-26T04:25:18.201Z,7.70
2019-02-26T04:27:56.987Z,7.93
2019-02-26T04:30:39.347Z,7.70
2019-02-26T04:33:36.488Z,7.60
2019-02-26T04:36:26.929Z,7.83
2019-02-26T04:39:29.540Z,7.40
2019-02-26T04:42:19.769Z,8.03
2019-02-26T04:45:13.878Z,8.13
2019-02-26T04:48:00.711Z,8.03
2019-02-26T04:50:35.019Z,7.63
2019-02-26T04:53:05.030Z,7.80
2019-02-26T04:55:36.115Z,7.87
2019-02-26T04:58:05.384Z,7.67
2019-02-26T05:00:36.581Z,7.70
2019-02-26T05:03:08.645Z,7.90
2019-02-26T05:05:38.604Z,7.93
2019-02-26T05:08:10.515Z,7.37
2019-02-26T05:10:40.122Z,7.60
2019-02-26T05:13:09.895Z,7.80
2019-02-26T05:15:39.583Z,8.10
2019-02-26T05:18:09.228Z,7.67
2019-02-26T05:20:40.138Z,8.20
2019-02-26T05:23:10.329Z,8.53
2019-02-26T05:25:42.342Z,7.27
2019-02-26T05:28:12.540Z,8.03
2019-02-26T05:30:43.839Z,8.83
2019-02-26T05:33:14.843Z,8.10
2019-02-26T05:35:46.166Z,8.67
2019-02-26T05:38:17.211Z,7.90
2019-02-26T05:40:48.196Z,8.67
2019-02-26T05:43:20.421Z,7.87
2019-02-26T05:45:50.949Z,7.50
2019-02-26T05:48:25.801Z,8.50
2019-02-26T05:50:57.370Z,7.90
2019-02-26T05:53:26.630Z,8.10
2019-02-26T05:55:56.342Z,8.60
2019-02-26T05:58:26.022Z,8.80
2019-02-26T06:00:55.726Z,8.53
2019-02-26T06:03:25.386Z,8.30
2019-02-26T06:05:57.673Z,8.50
2019-02-26T06:08:29.535Z,9.47
2019-02-26T06:10:57.929Z,9.40
2019-02-26T06:13:29.050Z,10.03
2019-02-26T06:16:02.164Z,8.77
2019-02-26T06:18:31.970Z,8.90
2019-02-26T06:21:01.664Z,9.03
2019-02-26T06:23:33.930Z,8.83
2019-02-26T06:26:09.295Z,9.47
2019-02-26T06:28:40.177Z,10.07
2019-02-26T06:31:11.456Z,10.47
2019-02-26T06:33:41.283Z,10.07
2019-02-26T06:36:12.151Z,10.93
2019-02-26T06:38:41.860Z,10.60
2019-02-26T06:41:11.674Z,10.67
2019-02-26T06:43:45.007Z,10.40
2019-02-26T06:46:14.141Z,10.83
2019-02-26T06:48:44.163Z,11.20
2019-02-26T06:51:13.858Z,11.27
2019-02-26T06:53:47.150Z,12.63
2019-02-26T06:56:16.012Z,13.47
2019-02-26T06:58:47.464Z,11.50
2019-02-26T07:01:18.857Z,13.03
2019-02-26T07:03:48.581Z,12.80
2019-02-26T07:06:20.541Z,11.70
2019-02-26T07:08:51.168Z,11.87
2019-02-26T07:11:21.195Z,12.73
2019-02-26T07:13:50.923Z,12.10
2019-02-26T07:16:21.187Z,12.17
2019-02-26T07:18:51.053Z,12.67
2019-02-26T07:21:20.701Z,13.07
2019-02-26T07:23:51.679Z,13.03
2019-02-26T07:26:23.129Z,12.77
2019-02-26T07:28:52.897Z,13.20
2019-02-26T07:31:24.203Z,13.00
2019-02-26T07:33:55.869Z,13.53
2019-02-26T07:36:27.994Z,13.93
2019-02-26T07:38:57.075Z,14.07
2019-02-26T07:41:29.788Z,12.87
2019-02-26T07:43:59.966Z,14.30
2019-02-26T07:46:29.705Z,13.53
2019-02-26T07:49:01.889Z,14.03
2019-02-26T07:51:31.625Z,12.47
2019-02-26T07:54:02.297Z,12.87
2019-02-26T07:56:32.756Z,11.93
2019-02-26T07:59:06.757Z,12.77
2019-02-26T08:01:35.448Z,12.33
2019-02-26T08:04:06.249Z,12.50
2019-02-26T08:06:38.380Z,12.07
2019-02-26T08:09:10.952Z,12.77
2019-02-26T08:11:41.262Z,12.27
2019-02-26T08:14:11.434Z,12.40
2019-02-26T08:16:41.263Z,11.40
2019-02-26T08:19:10.963Z,11.30
2019-02-26T08:21:40.687Z,12.70
2019-02-26T08:24:12.378Z,11.73
2019-02-26T08:26:43.025Z,11.80
2019-02-26T08:29:13.237Z,10.93
2019-02-26T08:31:46.708Z,11.00
2019-02-26T08:34:15.782Z,11.40
2019-02-26T08:36:46.834Z,11.03
2019-02-26T08:39:16.641Z,11.83
2019-02-26T08:42:08.359Z,11.27
2019-02-26T08:44:38.144Z,11.97
2019-02-26T08:47:11.122Z,10.90
2019-02-26T08:49:40.686Z,10.80
2019-02-26T08:52:10.864Z,11.33
2019-02-26T08:54:40.575Z,10.87
2019-02-26T08:57:11.965Z,10.47
2019-02-26T08:59:42.656Z,10.60
2019-02-26T09:02:13.404Z,9.40
2019-02-26T09:04:45.073Z,10.57
2019-02-26T09:07:16.373Z,10.47
2019-02-26T09:09:48.097Z,9.80
2019-02-26T09:12:19.752Z,10.10
2019-02-26T09:14:49.933Z,8.80
2019-02-26T09:17:23.163Z,9.67
2019-02-26T09:19:56.057Z,9.50
2019-02-26T09:22:23.593Z,8.90
2019-02-26T09:24:54.463Z,9.37
2019-02-26T09:27:27.085Z,9.03
2019-02-26T09:29:56.465Z,8.63
2019-02-26T09:32:28.215Z,9.10
2019-02-26T09:34:59.198Z,8.43
2019-02-26T09:37:28.986Z,8.93
2019-02-26T09:39:59.339Z,7.97
2019-02-26T09:42:32.373Z,8.10
2019-02-26T09:45:01.570Z,8.27
2019-02-26T09:47:33.477Z,7.47
2019-02-26T09:50:03.335Z,8.03
2019-02-26T09:52:33.027Z,7.47
2019-02-26T09:55:02.750Z,7.17
2019-02-26T09:57:32.523Z,7.97
2019-02-26T10:00:03.329Z,8.13
2019-02-26T10:02:33.378Z,7.60
2019-02-26T10:05:03.051Z,7.93
2019-02-26T10:07:35.541Z,7.50
2019-02-26T10:10:08.471Z,7.00
2019-02-26T10:12:39.336Z,7.50
2019-02-26T10:15:13.159Z,6.73
2019-02-26T10:17:45.091Z,7.37
2019-02-26T10:20:30.993Z,6.33
2019-02-26T10:23:00.662Z,6.67
2019-02-26T10:25:31.978Z,6.97
2019-02-26T10:28:05.710Z,6.73
2019-02-26T10:30:34.031Z,6.50
2019-02-26T10:33:06.430Z,5.80
2019-02-26T10:35:38.720Z,6.23
2019-02-26T10:38:11.115Z,6.50
2019-02-26T10:40:50.613Z,6.13
2019-02-26T10:43:11.073Z,5.97
2019-02-26T10:45:42.457Z,7.07
2019-02-26T10:48:13.756Z,6.60
2019-02-26T10:50:46.966Z,6.47
2019-02-26T10:53:19.361Z,6.40
2019-02-26T10:55:47.612Z,7.13
2019-02-26T10:58:17.403Z,6.93
2019-02-26T11:00:52.064Z,6.33
2019-02-26T11:03:20.594Z,6.30
2019-02-26T11:05:52.168Z,5.30
2019-02-26T11:08:24.553Z,5.53
2019-02-26T11:10:53.413Z,5.03
2019-02-26T11:13:25.677Z,4.60
2019-02-26T11:15:57.571Z,5.23
2019-02-26T11:18:26.149Z,5.00
2019-02-26T11:20:58.434Z,5.50
2019-02-26T11:23:30.968Z,5.40
2019-02-26T11:25:59.371Z,5.50
2019-02-26T11:28:32.721Z,6.10
2019-02-26T11:31:00.664Z,6.00
2019-02-26T11:33:30.540Z,6.70
2019-02-26T11:36:00.489Z,7.50
2019-02-26T11:38:30.224Z,7.07
2019-02-26T11:41:00.034Z,7.60
2019-02-26T11:43:29.731Z,8.10
2019-02-26T11:46:01.388Z,8.20
2019-02-26T11:48:33.185Z,8.30
2019-02-26T11:51:02.592Z,8.80
2019-02-26T11:53:32.349Z,9.73
2019-02-26T11:56:02.165Z,10.20
